Time;durP1;ratioP1;P1;durP2;ratioP2;P2;SDS_P1;SDS_P2;PMS_P1;PMS_P2;Temp;Humidity;BMP_temperature;BMP_pressure;BME280_temperature;BME280_humidity;BME280_pressure;Samples;Min_cycle;Max_cycle;Signal;HPM_P1;HPM_P2
2023/05/27 00:00:46;;;;;;;12.40;3.97;;;;;;;13.43;82.21;101022.09;5001715;28;20231;-81
2023/05/27 00:03:11;;;;;;;11.63;3.57;;;;;;;13.25;84.06;101016.94;5011478;28;20175;-81
2023/05/27 00:05:36;;;;;;;11.83;3.60;;;;;;;13.23;84.42;101021.34;5008682;28;20330;-85
2023/05/27 00:08:02;;;;;;;10.77;3.60;;;;;;;13.26;84.22;101020.34;5012754;28;20179;-83
2023/05/27 00:10:27;;;;;;;10.47;4.10;;;;;;;13.16;84.17;101026.00;5000440;28;20227;-85
2023/05/27 00:12:52;;;;;;;14.07;3.57;;;;;;;13.20;84.01;101013.75;5024031;28;20230;-79
2023/05/27 00:15:18;;;;;;;8.80;3.43;;;;;;;13.20;84.41;101022.31;5004073;28;20242;-82
2023/05/27 00:17:43;;;;;;;9.97;3.53;;;;;;;13.21;84.47;101026.59;5012617;28;20233;-82
2023/05/27 00:20:12;;;;;;;9.43;3.30;;;;;;;13.13;84.94;101027.88;5002362;28;20248;-82
2023/05/27 00:22:37;;;;;;;9.37;3.73;;;;;;;13.13;84.94;101020.13;5022489;28;20184;-84
2023/05/27 00:25:03;;;;;;;12.57;3.30;;;;;;;13.10;85.40;101020.28;5009322;28;20626;-85
2023/05/27 00:27:28;;;;;;;7.67;3.50;;;;;;;13.08;85.44;101022.94;5010799;28;20182;-85
2023/05/27 00:29:53;;;;;;;7.77;3.03;;;;;;;13.05;86.43;101021.34;5010700;28;20190;-86
2023/05/27 00:32:19;;;;;;;10.60;3.70;;;;;;;13.04;86.79;101018.84;5001542;28;20735;-86
2023/05/27 00:34:44;;;;;;;9.63;3.17;;;;;;;13.03;86.38;101023.16;5003416;28;20198;-88
2023/05/27 00:37:10;;;;;;;8.37;3.03;;;;;;;13.17;86.67;101024.22;5010412;28;20237;-84
2023/05/27 00:39:35;;;;;;;12.27;4.17;;;;;;;13.05;86.64;101017.94;5007536;28;20779;-80
2023/05/27 00:42:01;;;;;;;10.10;3.70;;;;;;;13.00;87.44;101020.75;5016440;28;20573;-82
2023/05/27 00:44:26;;;;;;;9.20;3.90;;;;;;;12.97;87.28;101015.72;5011249;28;20258;-82
2023/05/27 00:46:52;;;;;;;8.73;3.33;;;;;;;12.91;88.30;101019.47;5011011;28;20265;-84
2023/05/27 00:49:17;;;;;;;14.80;4.57;;;;;;;12.95;87.98;101012.41;5003674;28;20175;-82
2023/05/27 00:51:43;;;;;;;9.73;3.50;;;;;;;13.01;88.22;101014.69;5012450;28;20225;-84
2023/05/27 00:54:10;;;;;;;11.50;4.17;;;;;;;12.96;88.38;101013.22;5006849;28;20202;-77
2023/05/27 00:56:36;;;;;;;8.70;3.63;;;;;;;12.94;92.43;101015.91;5000549;28;20187;-75
2023/05/27 00:59:01;;;;;;;11.77;3.63;;;;;;;12.88;88.94;101016.19;5010554;28;20273;-78
2023/05/27 01:01:28;;;;;;;12.73;3.97;;;;;;;12.83;89.66;101015.59;5004032;28;20622;-77
2023/05/27 01:03:55;;;;;;;12.53;3.90;;;;;;;12.78;90.30;101020.16;5010334;28;20178;-77
2023/05/27 01:06:58;;;;;;;11.40;3.80;;;;;;;12.65;91.07;101018.19;5025505;28;20187;-77
2023/05/27 01:09:37;;;;;;;11.57;3.73;;;;;;;12.66;90.69;101021.56;5012265;28;20670;-77
2023/05/27 01:12:25;;;;;;;10.10;3.73;;;;;;;12.66;90.64;101017.25;5003139;28;20283;-77
2023/05/27 01:14:53;;;;;;;11.43;3.90;;;;;;;12.61;90.97;101020.97;5010819;28;20206;-78
2023/05/27 01:17:19;;;;;;;10.67;3.70;;;;;;;12.60;90.48;101017.53;5010075;28;20233;-77
2023/05/27 01:19:45;;;;;;;11.70;3.63;;;;;;;12.61;90.23;101019.22;5012001;28;20574;-78
2023/05/27 01:22:14;;;;;;;10.47;3.47;;;;;;;12.59;90.62;101016.72;5002728;28;20226;-78
2023/05/27 01:24:43;;;;;;;11.47;3.83;;;;;;;12.59;90.58;101015.88;5010330;28;20209;-78
2023/05/27 01:27:11;;;;;;;13.97;4.30;;;;;;;12.56;90.69;101005.69;5014245;28;20214;-77
2023/05/27 01:29:38;;;;;;;14.53;3.70;;;;;;;12.57;89.80;101007.38;5014787;28;20186;-77
2023/05/27 01:32:13;;;;;;;10.40;4.03;;;;;;;12.59;89.85;101005.56;5020492;28;20696;-77
2023/05/27 01:35:06;;;;;;;14.60;4.00;;;;;;;12.54;90.62;101010.94;5013907;28;20569;-77
2023/05/27 01:37:37;;;;;;;9.80;3.97;;;;;;;12.53;90.71;101008.44;5004965;28;20336;-77
2023/05/27 01:40:05;;;;;;;12.27;4.17;;;;;;;12.55;90.37;101001.44;5009537;28;20175;-76
2023/05/27 01:42:34;;;;;;;11.37;3.97;;;;;;;12.52;90.43;100999.03;5030499;28;20226;-77
2023/05/27 01:45:02;;;;;;;11.77;3.63;;;;;;;12.47;90.83;101003.56;5013692;28;20190;-77
2023/05/27 01:47:27;;;;;;;8.23;3.40;;;;;;;12.42;90.80;101004.63;5014273;28;20201;-78
2023/05/27 01:49:52;;;;;;;10.80;3.33;;;;;;;12.40;91.21;101008.19;5015163;28;20626;-78
2023/05/27 01:52:18;;;;;;;8.53;3.17;;;;;;;12.47;91.00;100999.25;5021053;28;20260;-78
2023/05/27 01:54:43;;;;;;;12.73;3.63;;;;;;;12.37;91.08;100998.84;5013690;28;20285;-77
2023/05/27 01:57:08;;;;;;;10.90;3.90;;;;;;;12.36;91.56;101004.09;5011774;28;20260;-78
2023/05/27 01:59:34;;;;;;;12.43;3.83;;;;;;;12.40;91.98;101000.44;5015516;28;20183;-76
2023/05/27 02:01:59;;;;;;;13.13;3.67;;;;;;;12.35;91.54;101005.00;5007061;28;20951;-76
2023/05/27 02:04:24;;;;;;;9.67;3.47;;;;;;;12.29;92.33;101000.94;5015490;28;20600;-77
2023/05/27 02:06:49;;;;;;;9.07;3.37;;;;;;;12.23;92.48;100996.06;5015112;28;20190;-76
2023/05/27 02:09:15;;;;;;;16.23;4.03;;;;;;;12.20;92.85;100993.66;5013950;28;20187;-76
2023/05/27 02:11:40;;;;;;;10.47;3.47;;;;;;;12.26;92.70;100996.75;5017560;28;20369;-76
2023/05/27 02:14:07;;;;;;;10.97;4.23;;;;;;;12.23;92.68;100985.75;5017477;28;20277;-76
2023/05/27 02:16:33;;;;;;;12.43;3.87;;;;;;;12.13;92.69;100990.53;5013327;28;20183;-75
2023/05/27 02:19:00;;;;;;;11.10;4.50;;;;;;;12.09;93.05;100989.84;5013321;28;20229;-76
2023/05/27 02:21:26;;;;;;;15.60;4.53;;;;;;;12.09;92.85;100982.09;5015697;28;20230;-76
2023/05/27 02:23:51;;;;;;;13.67;3.63;;;;;;;12.14;93.70;100991.34;5014455;28;20181;-76
2023/05/27 02:26:16;;;;;;;11.07;3.53;;;;;;;12.16;92.87;100992.97;5016079;28;20666;-78
2023/05/27 02:28:42;;;;;;;7.73;3.77;;;;;;;12.05;93.46;100995.19;5015015;28;20186;-77
2023/05/27 02:31:07;;;;;;;18.60;4.33;;;;;;;12.09;93.60;100991.56;5013099;28;20278;-76
2023/05/27 02:33:32;;;;;;;9.63;3.67;;;;;;;12.10;93.62;100990.66;5021447;28;20977;-77
2023/05/27 02:35:57;;;;;;;9.63;3.63;;;;;;;11.95;94.51;100994.75;5012689;28;20178;-77
2023/05/27 02:38:23;;;;;;;13.47;4.53;;;;;;;11.93;94.24;100987.09;5014670;28;20175;-77
2023/05/27 02:40:48;;;;;;;13.63;3.57;;;;;;;11.89;95.07;100988.13;5006428;28;20257;-77
2023/05/27 02:43:14;;;;;;;8.60;3.20;;;;;;;11.84;95.14;100992.66;5013167;28;20186;-77
2023/05/27 02:45:39;;;;;;;14.43;4.43;;;;;;;11.87;94.72;100983.94;5014190;28;20174;-78
2023/05/27 02:48:05;;;;;;;10.40;3.53;;;;;;;11.92;95.32;100982.00;5013948;28;20186;-78
2023/05/27 02:50:30;;;;;;;7.43;3.63;;;;;;;11.91;95.25;100983.75;5008369;28;20364;-77
2023/05/27 02:52:55;;;;;;;10.37;3.60;;;;;;;11.88;96.13;100981.31;5013110;28;20183;-77
2023/05/27 02:55:21;;;;;;;11.87;3.90;;;;;;;11.75;96.68;100973.31;5012656;28;20600;-77
2023/05/27 02:57:46;;;;;;;9.33;4.00;;;;;;;11.63;97.33;100984.16;5014170;28;20179;-77
2023/05/27 03:00:12;;;;;;;15.70;4.00;;;;;;;11.66;96.81;100973.72;4994230;28;20182;-78
2023/05/27 03:02:37;;;;;;;10.43;3.67;;;;;;;11.67;97.49;100977.97;4997219;28;20635;-77
2023/05/27 03:05:03;;;;;;;9.20;3.70;;;;;;;11.68;97.50;100978.81;5012518;28;20170;-77
2023/05/27 03:07:31;;;;;;;16.13;4.27;;;;;;;11.58;97.77;100976.63;5012713;28;20174;-77
2023/05/27 03:09:57;;;;;;;9.27;4.37;;;;;;;11.61;97.90;100975.69;5012680;28;20185;-77
2023/05/27 03:12:23;;;;;;;12.37;4.30;;;;;;;11.57;97.43;100969.84;5002803;28;20231;-77
2023/05/27 03:14:49;;;;;;;13.10;3.43;;;;;;;11.63;97.73;100977.28;5014029;28;20202;-77
2023/05/27 03:17:14;;;;;;;12.27;3.67;;;;;;;11.49;97.58;100978.81;5003167;28;20226;-77
2023/05/27 03:19:39;;;;;;;10.53;3.47;;;;;;;11.49;98.25;100974.47;5014061;28;20662;-78
2023/05/27 03:22:07;;;;;;;9.50;3.20;;;;;;;11.42;99.34;100975.66;5018766;28;20314;-78
2023/05/27 03:24:33;;;;;;;10.03;3.40;;;;;;;11.41;98.89;100977.41;5014025;28;20230;-77
2023/05/27 03:26:59;;;;;;;13.23;3.50;;;;;;;11.42;99.34;100978.22;5011754;28;20607;-77
2023/05/27 03:29:24;;;;;;;12.93;4.20;;;;;;;11.36;99.52;100974.19;5012383;28;20220;-76
2023/05/27 03:31:50;;;;;;;12.20;4.00;;;;;;;11.33;99.03;100974.31;4982559;28;20309;-77
2023/05/27 03:34:15;;;;;;;8.77;3.87;;;;;;;11.40;98.48;100973.16;5010136;28;20199;-76
2023/05/27 03:36:45;;;;;;;11.17;3.30;;;;;;;11.39;98.82;100970.66;5027683;28;20657;-76
2023/05/27 03:39:11;;;;;;;10.00;4.27;;;;;;;11.38;98.60;100968.97;5012421;28;20175;-77
2023/05/27 03:41:36;;;;;;;11.83;4.20;;;;;;;11.37;99.25;100969.88;5005355;28;20222;-77
2023/05/27 03:44:01;;;;;;;7.93;3.60;;;;;;;11.38;99.58;100964.63;5011911;28;20183;-76
2023/05/27 03:46:27;;;;;;;7.97;3.73;;;;;;;11.33;99.91;100964.00;5011629;28;20634;-76
2023/05/27 03:48:52;;;;;;;14.90;4.70;;;;;;;11.39;99.02;100973.22;5012938;28;20293;-76
2023/05/27 03:51:20;;;;;;;9.27;3.63;;;;;;;11.51;99.09;100964.94;5012547;28;20292;-77
2023/05/27 03:53:45;;;;;;;11.97;4.17;;;;;;;11.42;98.86;100971.34;5011955;28;20191;-76
2023/05/27 03:56:10;;;;;;;11.67;3.50;;;;;;;11.37;99.50;100970.69;5012422;28;20206;-76
2023/05/27 03:58:36;;;;;;;14.93;3.97;;;;;;;11.38;99.27;100969.78;5011913;28;20679;-77
2023/05/27 04:01:01;;;;;;;12.27;4.33;;;;;;;11.51;99.15;100976.97;5004525;28;20283;-77
2023/05/27 04:03:27;;;;;;;10.50;3.93;;;;;;;11.55;98.81;100970.81;5012097;28;20185;-77
2023/05/27 04:05:52;;;;;;;19.23;3.90;;;;;;;11.43;98.85;100973.00;5011005;28;20322;-76
2023/05/27 04:08:17;;;;;;;11.73;3.27;;;;;;;11.51;98.59;100975.25;5013226;28;20183;-78
2023/05/27 04:10:43;;;;;;;11.30;4.30;;;;;;;11.53;98.55;100976.00;5004658;28;20662;-78
2023/05/27 04:13:08;;;;;;;12.03;3.80;;;;;;;11.59;98.79;100974.91;5011590;28;20225;-78
2023/05/27 04:15:34;;;;;;;12.07;3.20;;;;;;;11.58;99.65;100979.22;5010988;28;20179;-78
2023/05/27 04:17:59;;;;;;;10.37;4.13;;;;;;;11.69;98.34;100977.91;5011431;28;20606;-78
2023/05/27 04:20:24;;;;;;;10.27;3.43;;;;;;;11.59;98.63;100974.91;5005460;28;20276;-78
2023/05/27 04:22:50;;;;;;;11.67;3.97;;;;;;;11.71;98.50;100969.19;5025320;28;20190;-78
2023/05/27 04:25:15;;;;;;;13.40;4.20;;;;;;;11.69;98.03;100980.50;5010786;28;20201;-78
2023/05/27 04:27:40;;;;;;;10.47;3.73;;;;;;;11.75;98.29;100977.63;5012713;28;20179;-77
2023/05/27 04:30:07;;;;;;;10.10;3.70;;;;;;;11.69;98.79;100983.88;5002324;28;20218;-77
2023/05/27 04:32:38;;;;;;;14.10;4.37;;;;;;;11.76;98.39;100977.56;5027539;28;20650;-79
2023/05/27 04:35:09;;;;;;;11.20;3.47;;;;;;;11.79;97.70;100980.00;5012363;28;20206;-76
2023/05/27 04:37:40;;;;;;;12.90;4.60;;;;;;;11.77;97.87;100981.81;5011490;28;20202;-77
2023/05/27 04:40:07;;;;;;;9.73;3.63;;;;;;;11.85;97.32;100984.03;5001211;28;20179;-76
2023/05/27 04:42:33;;;;;;;12.63;4.20;;;;;;;11.89;97.59;100982.97;5027094;28;20633;-77
2023/05/27 04:44:59;;;;;;;11.73;3.30;;;;;;;11.92;97.89;100977.69;5012239;28;20186;-76
2023/05/27 04:47:25;;;;;;;11.40;3.70;;;;;;;11.94;98.04;100975.03;5011320;28;20309;-76
2023/05/27 04:49:50;;;;;;;10.20;3.57;;;;;;;11.91;97.73;100975.19;5012351;28;20234;-77
2023/05/27 04:52:15;;;;;;;11.13;3.90;;;;;;;11.96;97.22;100981.00;5017258;28;20225;-77
2023/05/27 04:54:40;;;;;;;12.73;4.20;;;;;;;12.05;97.08;100983.13;5010943;28;20210;-79
2023/05/27 04:57:06;;;;;;;14.20;3.43;;;;;;;12.19;96.59;100986.81;5010425;28;20581;-78
2023/05/27 04:59:58;;;;;;;13.63;4.13;;;;;;;12.25;96.43;100991.69;5012376;28;20174;-78
2023/05/27 05:02:27;;;;;;;14.90;3.83;;;;;;;12.36;95.58;100980.88;5000951;28;20280;-78
2023/05/27 05:04:52;;;;;;;10.20;3.83;;;;;;;12.37;95.28;100980.78;5011042;28;20171;-78
2023/05/27 05:07:19;;;;;;;11.23;3.73;;;;;;;12.58;94.50;100980.66;5011524;28;20520;-78
2023/05/27 05:09:44;;;;;;;10.37;3.63;;;;;;;12.56;94.18;100975.56;5012014;28;20174;-78
2023/05/27 05:12:10;;;;;;;14.67;4.03;;;;;;;12.79;92.85;100972.75;5002170;28;20249;-77
2023/05/27 05:14:35;;;;;;;11.73;3.50;;;;;;;12.85;91.95;100978.47;5010826;28;20206;-77
2023/05/27 05:17:00;;;;;;;10.37;4.10;;;;;;;13.08;91.89;100974.72;5009995;28;20670;-77
2023/05/27 05:19:25;;;;;;;11.33;4.23;;;;;;;13.17;90.41;100973.41;5012021;28;20209;-76
2023/05/27 05:21:51;;;;;;;11.57;4.60;;;;;;;12.92;91.26;100966.06;5015132;28;20264;-75
2023/05/27 05:24:16;;;;;;;10.47;3.70;;;;;;;13.05;90.40;100964.53;5013585;28;20602;-76
2023/05/27 05:26:41;;;;;;;10.00;4.03;;;;;;;13.20;89.04;100969.84;5011260;28;20225;-76
2023/05/27 05:29:07;;;;;;;8.73;3.60;;;;;;;13.35;88.50;100973.38;5010691;28;20229;-78
2023/05/27 05:31:32;;;;;;;14.00;3.70;;;;;;;13.61;87.62;100972.03;5012869;28;20713;-77
2023/05/27 05:33:57;;;;;;;10.60;3.53;;;;;;;13.52;85.56;100975.06;5015451;28;20218;-75
2023/05/27 05:36:23;;;;;;;11.33;3.53;;;;;;;13.53;84.35;100976.75;5011299;28;20178;-76
2023/05/27 05:38:48;;;;;;;11.90;3.40;;;;;;;13.58;83.26;100979.91;5011668;28;20174;-75
2023/05/27 05:41:14;;;;;;;13.60;4.10;;;;;;;13.75;83.37;100978.22;5003449;28;20688;-76
2023/05/27 05:43:39;;;;;;;12.57;4.13;;;;;;;13.76;82.89;100987.63;5018292;28;20175;-74
2023/05/27 05:46:04;;;;;;;11.03;4.03;;;;;;;13.78;82.42;100989.22;5009487;28;20280;-75
2023/05/27 05:48:30;;;;;;;10.80;3.53;;;;;;;13.87;81.86;100985.31;5011643;28;20190;-75
2023/05/27 05:50:55;;;;;;;16.20;3.60;;;;;;;13.88;80.61;100974.88;5007947;28;20526;-75
2023/05/27 05:53:20;;;;;;;10.33;4.23;;;;;;;14.00;80.20;100981.13;5019636;28;20224;-76
2023/05/27 05:55:45;;;;;;;9.03;3.70;;;;;;;14.08;80.11;100982.44;5010885;28;20221;-75
2023/05/27 05:58:11;;;;;;;14.73;5.13;;;;;;;14.17;80.30;100982.75;5011351;28;20716;-74
2023/05/27 06:00:36;;;;;;;13.07;4.00;;;;;;;14.46;76.48;100980.31;5005649;28;20233;-72
2023/05/27 06:03:01;;;;;;;10.53;3.77;;;;;;;14.24;78.56;100982.44;5022414;28;20241;-72
2023/05/27 06:05:27;;;;;;;9.77;3.67;;;;;;;14.30;77.94;100982.09;5010987;28;20187;-76
2023/05/27 06:07:53;;;;;;;13.70;4.10;;;;;;;14.64;76.75;100981.00;5011124;28;20174;-75
2023/05/27 06:10:19;;;;;;;9.10;3.60;;;;;;;14.83;71.71;100990.31;5001995;28;20195;-71
2023/05/27 06:12:44;;;;;;;13.23;3.60;;;;;;;14.93;72.30;100986.25;5018785;28;20214;-72
2023/05/27 06:15:09;;;;;;;10.90;3.83;;;;;;;15.12;69.55;100986.03;5014454;28;20205;-73
2023/05/27 06:17:35;;;;;;;12.30;4.57;;;;;;;15.20;70.04;100987.34;5014615;28;20182;-74
2023/05/27 06:20:00;;;;;;;13.47;3.93;;;;;;;15.53;67.51;100981.00;5014517;28;20183;-73
2023/05/27 06:22:26;;;;;;;12.60;4.33;;;;;;;15.92;63.07;100982.09;5016607;28;20314;-74
2023/05/27 06:24:51;;;;;;;13.73;4.07;;;;;;;15.93;63.07;100989.78;5011897;28;20193;-73
2023/05/27 06:27:16;;;;;;;12.13;4.17;;;;;;;16.27;60.83;100990.25;5013975;28;20202;-74
2023/05/27 06:29:41;;;;;;;15.23;3.67;;;;;;;16.53;58.79;100984.28;5013917;28;20236;-72
2023/05/27 06:32:07;;;;;;;11.73;4.10;;;;;;;17.18;55.38;100982.56;5020799;28;20222;-73
2023/05/27 06:34:32;;;;;;;11.70;4.20;;;;;;;17.44;54.15;100978.19;5007673;28;20262;-72
2023/05/27 06:36:57;;;;;;;9.90;3.53;;;;;;;18.29;51.71;100976.56;5014689;28;20187;-74
2023/05/27 06:39:23;;;;;;;9.60;3.83;;;;;;;18.58;49.02;100978.78;5006343;28;20184;-73
2023/05/27 06:41:48;;;;;;;11.63;4.17;;;;;;;17.70;49.98;100993.72;5014065;28;20228;-72
2023/05/27 06:44:13;;;;;;;10.77;3.90;;;;;;;17.85;51.17;100977.03;5008295;28;20217;-74
2023/05/27 06:46:39;;;;;;;8.73;3.73;;;;;;;18.48;48.51;100984.69;5013741;28;20190;-73
2023/05/27 06:49:04;;;;;;;11.10;3.80;;;;;;;18.59;47.98;100983.88;5014381;28;20227;-73
2023/05/27 06:51:29;;;;;;;12.47;4.20;;;;;;;18.99;46.89;100982.69;5005579;28;20633;-73
2023/05/27 06:53:55;;;;;;;13.60;3.83;;;;;;;18.99;46.51;100980.06;5020618;28;20199;-76
2023/05/27 06:56:20;;;;;;;8.17;3.70;;;;;;;19.42;46.12;100973.34;5013669;28;20191;-73
2023/05/27 06:58:45;;;;;;;10.13;3.67;;;;;;;18.48;47.41;100979.50;5009081;28;20179;-72
2023/05/27 07:01:11;;;;;;;7.90;3.53;;;;;;;18.74;47.91;100976.69;4991342;28;20230;-71
2023/05/27 07:03:36;;;;;;;12.23;4.17;;;;;;;19.33;45.97;100975.69;5013450;28;20206;-71
2023/05/27 07:06:02;;;;;;;10.67;4.47;;;;;;;19.24;46.21;100976.44;5013035;28;20194;-71
2023/05/27 07:08:27;;;;;;;11.83;3.83;;;;;;;19.52;46.58;100969.91;5013572;28;20265;-72
2023/05/27 07:10:52;;;;;;;11.60;3.70;;;;;;;19.41;45.12;100974.28;5009953;28;20249;-71
2023/05/27 07:13:18;;;;;;;9.00;3.80;;;;;;;19.80;44.50;100985.16;5021602;28;20191;-72
2023/05/27 07:15:43;;;;;;;8.60;3.87;;;;;;;19.50;45.00;100982.22;5008438;28;20604;-71
2023/05/27 07:18:08;;;;;;;14.37;4.30;;;;;;;19.37;45.71;100976.28;5023782;28;20655;-72
2023/05/27 07:20:34;;;;;;;17.23;3.87;;;;;;;20.32;43.82;100978.34;5007671;28;20753;-71
2023/05/27 07:23:00;;;;;;;9.70;4.00;;;;;;;19.73;43.88;100969.13;5011361;28;20182;-71
2023/05/27 07:25:26;;;;;;;7.67;3.50;;;;;;;21.24;41.74;100968.16;5025037;28;20709;-71
2023/05/27 07:27:51;;;;;;;10.93;3.77;;;;;;;22.16;40.33;100967.09;5013718;28;20218;-71
2023/05/27 07:30:17;;;;;;;12.27;4.13;;;;;;;24.79;36.00;100965.03;4983203;28;20194;-72
2023/05/27 07:32:42;;;;;;;7.70;3.75;;;;;;;23.34;36.19;100962.44;5012687;28;20190;-72
2023/05/27 07:35:08;;;;;;;9.95;3.78;;;;;;;22.25;38.29;100966.28;5012762;28;20194;-71
2023/05/27 07:37:33;;;;;;;12.93;3.83;;;;;;;21.17;39.11;100964.41;5013888;28;20206;-71
2023/05/27 07:39:58;;;;;;;9.90;3.97;;;;;;;20.90;39.96;100957.94;5013310;28;20577;-71
2023/05/27 07:42:24;;;;;;;9.77;3.83;;;;;;;21.82;39.09;100953.56;5002566;28;20222;-72
2023/05/27 07:44:50;;;;;;;9.47;3.83;;;;;;;22.70;37.21;100953.53;5013367;28;20494;-72
2023/05/27 07:47:15;;;;;;;10.97;4.00;;;;;;;22.84;37.91;100958.31;5012865;28;20584;-72
2023/05/27 07:49:40;;;;;;;8.88;4.18;;;;;;;23.96;35.34;100966.19;5013091;28;20534;-72
2023/05/27 07:52:06;;;;;;;11.18;3.97;;;;;;;22.61;36.83;100957.81;5018204;28;20300;-72
2023/05/27 07:54:31;;;;;;;11.32;4.50;;;;;;;22.89;36.95;100960.50;5011895;28;20525;-72
2023/05/27 07:56:57;;;;;;;9.60;3.93;;;;;;;22.29;37.72;100966.81;5012962;28;20294;-72
2023/05/27 07:59:23;;;;;;;9.25;4.35;;;;;;;21.92;39.04;100954.41;5011732;28;20178;-72
2023/05/27 08:01:48;;;;;;;12.57;4.53;;;;;;;22.47;37.48;100966.16;5016571;28;20312;-72
2023/05/27 08:04:13;;;;;;;12.77;4.60;;;;;;;21.57;39.42;100960.97;5011350;28;20529;-72
2023/05/27 08:06:39;;;;;;;18.43;4.40;;;;;;;20.85;41.25;100962.75;5012493;28;20186;-72
2023/05/27 08:09:04;;;;;;;11.00;4.03;;;;;;;21.51;39.53;100959.69;5012764;28;20195;-72
2023/05/27 08:11:31;;;;;;;11.77;4.97;;;;;;;21.87;38.90;100956.63;5013859;28;20253;-72
2023/05/27 08:13:56;;;;;;;11.13;3.87;;;;;;;22.51;38.48;100949.16;5011341;28;20202;-73
2023/05/27 08:16:21;;;;;;;10.67;3.83;;;;;;;22.30;38.14;100947.53;5012683;28;20179;-72
2023/05/27 08:18:47;;;;;;;9.27;4.18;;;;;;;23.49;37.02;100944.38;5012491;28;20665;-72
2023/05/27 08:21:12;;;;;;;10.93;3.80;;;;;;;23.24;36.97;100950.31;5011202;28;20218;-73
2023/05/27 08:23:37;;;;;;;13.23;4.30;;;;;;;22.36;38.00;100944.34;5019324;28;20626;-73
2023/05/27 08:26:02;;;;;;;11.23;4.10;;;;;;;21.76;39.66;100940.06;5011831;28;20236;-73
2023/05/27 08:28:28;;;;;;;10.40;3.87;;;;;;;22.29;39.78;100932.75;5012573;28;20190;-73
2023/05/27 08:30:53;;;;;;;10.03;4.00;;;;;;;22.65;38.23;100930.38;5009167;28;20748;-73
2023/05/27 08:33:19;;;;;;;9.27;3.97;;;;;;;23.43;37.03;100923.13;5021240;28;20186;-70
2023/05/27 08:35:44;;;;;;;12.23;4.23;;;;;;;23.74;38.13;100925.41;5010386;28;20174;-71
2023/05/27 08:38:10;;;;;;;8.00;3.55;;;;;;;22.40;38.18;100918.69;5012182;28;20218;-72
2023/05/27 08:40:35;;;;;;;11.63;4.40;;;;;;;22.52;38.82;100908.88;5006613;28;20226;-72
2023/05/27 08:43:02;;;;;;;12.83;4.27;;;;;;;22.75;38.76;100911.13;5011219;28;20191;-72
2023/05/27 08:45:28;;;;;;;10.25;4.30;;;;;;;22.96;37.98;100903.03;5010651;28;20186;-72
2023/05/27 08:47:53;;;;;;;13.32;3.75;;;;;;;23.15;37.90;100913.44;5010698;28;20190;-72
2023/05/27 08:50:19;;;;;;;12.90;3.95;;;;;;;23.08;38.30;100908.94;5004238;28;20182;-72
2023/05/27 08:52:47;;;;;;;13.35;4.10;;;;;;;23.80;36.74;100901.16;5010545;28;20218;-73
2023/05/27 08:55:19;;;;;;;11.05;4.57;;;;;;;23.91;37.44;100906.19;5010565;28;20202;-72
2023/05/27 08:57:50;;;;;;;11.60;4.18;;;;;;;25.12;35.91;100899.38;5011971;28;20186;-73
2023/05/27 09:00:15;;;;;;;9.95;4.47;;;;;;;23.78;36.75;100911.81;5003523;28;20182;-72
2023/05/27 09:02:41;;;;;;;11.32;4.40;;;;;;;24.26;37.01;100906.31;5025612;28;20777;-72
2023/05/27 09:05:09;;;;;;;11.80;4.35;;;;;;;25.61;34.27;100896.88;5010095;28;20262;-73
2023/05/27 09:07:36;;;;;;;8.90;4.07;;;;;;;23.80;36.23;100902.00;5011875;28;20233;-72
2023/05/27 09:10:01;;;;;;;10.35;4.28;;;;;;;23.55;37.83;100900.94;5010570;28;20198;-73
2023/05/27 09:12:27;;;;;;;13.98;4.78;;;;;;;23.65;36.45;100893.84;5000221;28;20257;-72
2023/05/27 09:14:56;;;;;;;14.07;4.47;;;;;;;23.46;37.71;100893.97;5010406;28;20206;-72
2023/05/27 09:17:25;;;;;;;10.68;4.28;;;;;;;23.98;37.45;100888.06;5009455;28;20187;-72
2023/05/27 09:19:51;;;;;;;11.15;4.85;;;;;;;24.94;36.75;100883.69;5010216;28;20666;-72
2023/05/27 09:22:29;;;;;;;9.65;4.40;;;;;;;26.22;33.80;100886.00;5001912;28;20226;-73
2023/05/27 09:24:56;;;;;;;10.40;4.25;;;;;;;24.64;35.41;100883.19;5010407;28;20232;-72
2023/05/27 09:27:28;;;;;;;14.43;4.32;;;;;;;23.65;36.59;100888.56;5011537;28;20214;-72
2023/05/27 09:29:54;;;;;;;12.30;4.18;;;;;;;24.32;36.56;100871.50;5009903;28;20212;-72
2023/05/27 09:32:27;;;;;;;10.20;4.07;;;;;;;23.46;37.51;100886.09;5001683;28;20230;-72
2023/05/27 09:34:54;;;;;;;8.88;4.13;;;;;;;23.63;36.61;100880.00;5010267;28;20665;-72
2023/05/27 09:37:20;;;;;;;11.68;4.43;;;;;;;24.15;37.12;100868.78;5010197;28;20638;-72
2023/05/27 09:39:46;;;;;;;11.25;5.07;;;;;;;24.18;36.80;100876.34;5011692;28;20186;-72
2023/05/27 09:42:13;;;;;;;15.25;5.40;;;;;;;23.50;37.07;100883.00;5002368;28;20677;-72
2023/05/27 09:44:40;;;;;;;10.02;4.15;;;;;;;23.28;38.13;100876.41;5011619;28;20189;-73
2023/05/27 09:47:07;;;;;;;13.90;4.35;;;;;;;23.18;38.61;100871.22;5012082;28;20187;-72
2023/05/27 09:49:35;;;;;;;12.65;4.20;;;;;;;23.78;38.28;100864.53;5014257;28;20521;-72
2023/05/27 09:52:01;;;;;;;13.13;4.78;;;;;;;26.01;35.62;100857.50;5020112;28;20222;-73
2023/05/27 09:54:27;;;;;;;11.80;3.80;;;;;;;26.67;32.76;100867.06;5015632;28;20206;-73
2023/05/27 09:56:52;;;;;;;9.93;3.80;;;;;;;24.54;35.82;100857.00;5015581;28;20182;-72
2023/05/27 09:59:18;;;;;;;11.68;3.72;;;;;;;24.57;35.98;100861.13;5013807;28;20182;-71
2023/05/27 10:01:46;;;;;;;15.35;6.97;;;;;;;24.87;35.70;100851.09;5018200;28;20271;-72
2023/05/27 10:04:14;;;;;;;10.77;4.35;;;;;;;25.27;34.72;100849.56;5013681;28;20584;-72
2023/05/27 10:06:40;;;;;;;11.27;5.18;;;;;;;25.37;35.14;100846.81;5013662;28;20182;-73
2023/05/27 10:09:06;;;;;;;11.45;4.22;;;;;;;24.65;35.94;100848.88;5013711;28;20191;-71
2023/05/27 10:11:35;;;;;;;10.52;4.97;;;;;;;24.07;37.22;100841.63;5006808;28;20234;-72
2023/05/27 10:14:01;;;;;;;9.50;3.97;;;;;;;25.93;34.31;100839.88;5013353;28;20222;-72
2023/05/27 10:16:27;;;;;;;10.75;4.18;;;;;;;25.22;35.04;100846.59;5013582;28;20232;-72
2023/05/27 10:18:56;;;;;;;9.75;4.50;;;;;;;25.73;34.46;100844.66;5014845;28;20207;-72
2023/05/27 10:21:24;;;;;;;13.60;4.65;;;;;;;25.77;34.25;100835.44;5014912;28;20268;-72
2023/05/27 10:23:59;;;;;;;13.65;4.30;;;;;;;26.65;33.04;100843.50;5013087;28;20264;-72
2023/05/27 10:26:38;;;;;;;11.63;4.40;;;;;;;24.96;35.33;100837.00;5014580;28;20183;-72
2023/05/27 10:29:12;;;;;;;10.07;4.10;;;;;;;25.09;35.19;100826.84;5010823;28;20265;-72
2023/05/27 10:31:48;;;;;;;9.35;4.43;;;;;;;25.49;35.04;100834.97;4997700;28;20234;-72
2023/05/27 10:34:14;;;;;;;13.73;4.88;;;;;;;24.93;35.27;100819.72;5016504;28;20206;-72
2023/05/27 10:36:40;;;;;;;10.40;4.32;;;;;;;25.24;35.68;100823.53;5013916;28;20178;-72
2023/05/27 10:39:11;;;;;;;14.73;4.25;;;;;;;23.78;36.84;100832.22;5014981;28;20635;-71
2023/05/27 10:41:40;;;;;;;9.57;4.63;;;;;;;22.78;38.97;100819.88;5008907;28;20226;-72
2023/05/27 10:44:06;;;;;;;11.93;4.72;;;;;;;22.17;41.50;100810.72;5019052;28;20178;-72
2023/05/27 10:46:39;;;;;;;13.80;4.80;;;;;;;21.47;42.06;100817.00;5014146;28;20190;-71
2023/05/27 10:49:14;;;;;;;14.57;5.17;;;;;;;21.51;44.27;100812.28;5014506;28;20201;-71
2023/05/27 10:51:39;;;;;;;13.20;4.20;;;;;;;21.98;43.31;100799.31;5015842;28;20229;-72
2023/05/27 10:54:06;;;;;;;11.23;4.23;;;;;;;21.73;43.13;100816.44;5012983;28;20225;-72
2023/05/27 10:56:32;;;;;;;10.37;4.00;;;;;;;21.14;44.18;100802.50;5013750;28;20201;-72
2023/05/27 10:59:01;;;;;;;13.67;4.23;;;;;;;21.34;44.96;100798.09;5014017;28;20596;-72
2023/05/27 11:01:31;;;;;;;11.77;4.77;;;;;;;21.36;44.77;100801.41;4995316;28;20304;-72
2023/05/27 11:03:58;;;;;;;12.10;4.50;;;;;;;21.17;44.84;100789.13;5012311;28;20182;-72
2023/05/27 11:06:24;;;;;;;8.93;3.93;;;;;;;21.08;44.74;100778.50;5012395;28;20183;-72
2023/05/27 11:08:49;;;;;;;12.37;4.57;;;;;;;20.95;45.59;100776.16;5012392;28;20182;-72
2023/05/27 11:11:15;;;;;;;10.70;4.60;;;;;;;21.09;47.90;100774.13;5013082;28;20245;-72
2023/05/27 11:13:42;;;;;;;12.17;4.03;;;;;;;21.29;46.75;100777.56;5012370;28;20852;-71
2023/05/27 11:16:08;;;;;;;10.20;4.33;;;;;;;21.07;46.42;100770.81;5011438;28;20301;-71